createdAt,value
2023-05-12T00:02:15.910Z,12.45
2023-05-12T00:04:46.635Z,12.44
2023-05-12T00:07:17.410Z,12.39
2023-05-12T00:09:48.099Z,12.35
2023-05-12T00:12:18.859Z,12.34
2023-05-12T00:14:49.527Z,12.31
2023-05-12T00:17:20.230Z,12.23
2023-05-12T00:19:50.935Z,12.19
2023-05-12T00:22:21.617Z,12.12
2023-05-12T00:24:52.247Z,12.05
2023-05-12T00:27:22.848Z,11.97
2023-05-12T00:29:53.447Z,11.93
2023-05-12T00:32:24.205Z,11.90
2023-05-12T00:34:54.772Z,11.88
2023-05-12T00:37:25.511Z,11.84
2023-05-12T00:39:56.175Z,11.79
2023-05-12T00:42:26.820Z,11.76
2023-05-12T00:44:57.464Z,11.73
2023-05-12T00:47:28.520Z,11.67
2023-05-12T00:49:59.764Z,11.60
2023-05-12T00:52:30.468Z,11.54
2023-05-12T00:55:02.647Z,11.51
2023-05-12T00:57:34.287Z,11.52
2023-05-12T01:00:05.579Z,11.46
2023-05-12T01:02:36.752Z,11.44
2023-05-12T01:05:08.542Z,11.40
2023-05-12T01:07:40.540Z,11.34
2023-05-12T01:10:21.126Z,11.29
2023-05-12T01:12:52.140Z,11.27
2023-05-12T01:15:22.803Z,11.23
2023-05-12T01:17:57.434Z,11.24
2023-05-12T01:20:28.808Z,11.25
2023-05-12T01:23:00.281Z,11.24
2023-05-12T01:25:34.246Z,11.19
2023-05-12T01:28:06.604Z,11.14
2023-05-12T01:30:38.979Z,11.07
2023-05-12T01:33:10.151Z,11.02
2023-05-12T01:35:40.749Z,11.01
2023-05-12T01:38:11.439Z,10.99
2023-05-12T01:40:42.025Z,10.94
2023-05-12T01:43:12.787Z,10.93
2023-05-12T01:45:42.022Z,10.92
2023-05-12T01:48:12.649Z,10.88
2023-05-12T01:50:43.271Z,10.83
2023-05-12T01:53:13.904Z,10.82
2023-05-12T01:55:44.765Z,10.81
2023-05-12T01:58:15.392Z,10.80
2023-05-12T02:00:46.049Z,10.78
2023-05-12T02:03:16.994Z,10.76
2023-05-12T02:05:46.028Z,10.71
2023-05-12T02:08:16.768Z,10.65
2023-05-12T02:10:47.663Z,10.62
2023-05-12T02:13:18.362Z,10.58
2023-05-12T02:15:48.950Z,10.54
2023-05-12T02:18:19.655Z,10.53
2023-05-12T02:20:50.324Z,10.46
2023-05-12T02:23:21.059Z,10.40
2023-05-12T02:25:51.648Z,10.35
2023-05-12T02:28:22.583Z,10.33
2023-05-12T02:30:51.672Z,10.30
2023-05-12T02:33:22.969Z,10.27
2023-05-12T02:35:53.926Z,10.25
2023-05-12T02:38:24.585Z,10.21
2023-05-12T02:40:55.326Z,10.19
2023-05-12T02:43:25.972Z,10.17
2023-05-12T02:45:57.357Z,10.15
2023-05-12T02:48:28.084Z,10.14
2023-05-12T02:50:58.703Z,10.15
2023-05-12T02:53:29.596Z,10.18
2023-05-12T02:56:00.952Z,10.17
2023-05-12T02:58:31.828Z,10.18
2023-05-12T03:01:10.218Z,10.15
2023-05-12T03:03:41.907Z,10.12
2023-05-12T03:06:12.777Z,10.09
2023-05-12T03:08:43.462Z,10.09
2023-05-12T03:11:14.063Z,10.07
2023-05-12T03:13:44.754Z,10.05
2023-05-12T03:16:15.633Z,10.04
2023-05-12T03:18:47.093Z,10.04
2023-05-12T03:21:17.756Z,10.03
2023-05-12T03:23:48.386Z,10.02
2023-05-12T03:26:19.007Z,10.05
2023-05-12T03:28:49.660Z,10.08
2023-05-12T03:31:20.482Z,10.12
2023-05-12T03:33:51.416Z,10.16
2023-05-12T03:36:20.557Z,10.15
2023-05-12T03:38:51.166Z,10.18
2023-05-12T03:41:21.820Z,10.23
2023-05-12T03:43:52.420Z,10.25
2023-05-12T03:46:23.165Z,10.25
2023-05-12T03:48:53.976Z,10.29
2023-05-12T03:51:24.546Z,10.32
2023-05-12T03:53:55.255Z,10.37
2023-05-12T03:56:25.861Z,10.41
2023-05-12T03:58:56.904Z,10.49
2023-05-12T04:01:25.927Z,10.53
2023-05-12T04:03:56.731Z,10.59
2023-05-12T04:06:27.561Z,10.69
2023-05-12T04:08:58.743Z,11.46
2023-05-12T04:11:29.481Z,13.18
2023-05-12T04:14:00.162Z,15.03
2023-05-12T04:16:30.761Z,16.46
2023-05-12T04:18:59.940Z,17.56
2023-05-12T04:21:30.836Z,18.63
2023-05-12T04:24:01.437Z,19.82
2023-05-12T04:26:32.102Z,20.72
2023-05-12T04:29:05.267Z,21.57
2023-05-12T04:31:42.040Z,22.63
2023-05-12T04:34:12.710Z,23.37
2023-05-12T04:36:43.339Z,23.91
2023-05-12T04:39:13.950Z,24.57
2023-05-12T04:41:44.645Z,25.46
2023-05-12T04:44:15.237Z,26.18
2023-05-12T04:46:45.892Z,26.80
2023-05-12T04:49:16.530Z,27.32
2023-05-12T04:51:47.167Z,27.36
2023-05-12T04:54:17.873Z,27.32
2023-05-12T04:56:48.517Z,27.22
2023-05-12T04:59:19.428Z,27.55
2023-05-12T05:01:50.358Z,28.00
2023-05-12T05:04:21.141Z,28.21
2023-05-12T05:06:51.926Z,28.03
2023-05-12T05:09:23.072Z,28.21
2023-05-12T05:11:53.780Z,28.47
2023-05-12T05:14:24.467Z,27.95
2023-05-12T05:16:55.223Z,27.64
2023-05-12T05:19:39.123Z,27.04
2023-05-12T05:22:16.917Z,26.00
2023-05-12T05:24:47.496Z,24.94
2023-05-12T05:27:19.609Z,23.77
2023-05-12T05:29:50.335Z,22.64
2023-05-12T05:32:20.981Z,21.68
2023-05-12T05:34:51.667Z,20.83
2023-05-12T05:37:22.333Z,20.25
2023-05-12T05:39:53.010Z,19.44
2023-05-12T05:42:23.669Z,18.81
2023-05-12T05:44:54.342Z,18.34
2023-05-12T05:47:25.015Z,17.92
2023-05-12T05:49:55.789Z,17.45
2023-05-12T05:52:28.752Z,17.05
2023-05-12T05:55:00.202Z,16.87
2023-05-12T05:57:30.975Z,16.71
2023-05-12T06:00:00.160Z,16.53
2023-05-12T06:02:30.839Z,16.31
2023-05-12T06:05:01.637Z,16.13
2023-05-12T06:07:32.255Z,15.99
2023-05-12T06:10:03.011Z,16.01
2023-05-12T06:12:32.072Z,15.84
2023-05-12T06:15:02.729Z,15.67
2023-05-12T06:17:33.486Z,15.56
2023-05-12T06:20:02.662Z,15.55
2023-05-12T06:22:33.301Z,15.48
2023-05-12T06:25:05.526Z,15.49
2023-05-12T06:27:36.202Z,15.50
2023-05-12T06:30:10.385Z,15.59
2023-05-12T06:32:41.126Z,15.67
2023-05-12T06:35:12.080Z,15.77
2023-05-12T06:37:41.176Z,15.93
2023-05-12T06:40:15.170Z,16.01
2023-05-12T06:42:45.813Z,16.08
2023-05-12T06:45:16.464Z,16.18
2023-05-12T06:47:47.261Z,16.22
2023-05-12T06:50:16.495Z,16.26
2023-05-12T06:52:47.207Z,16.35
2023-05-12T06:55:17.954Z,16.40
2023-05-12T06:57:48.752Z,16.48
2023-05-12T07:00:20.412Z,16.54
2023-05-12T07:02:51.318Z,16.63
2023-05-12T07:05:20.788Z,16.75
2023-05-12T07:07:59.283Z,16.85
2023-05-12T07:10:29.904Z,16.87
2023-05-12T07:13:00.677Z,16.80
2023-05-12T07:15:31.253Z,16.78
2023-05-12T07:18:03.538Z,16.80
2023-05-12T07:20:34.564Z,16.82
2023-05-12T07:23:05.252Z,16.88
2023-05-12T07:25:36.092Z,16.97
2023-05-12T07:28:07.098Z,17.08
2023-05-12T07:30:38.469Z,17.21
2023-05-12T07:33:09.250Z,17.29
2023-05-12T07:35:40.589Z,17.37
2023-05-12T07:38:11.265Z,17.52
2023-05-12T07:40:41.943Z,17.59
2023-05-12T07:43:12.728Z,17.63
2023-05-12T07:45:41.774Z,17.74
2023-05-12T07:48:12.859Z,17.82
2023-05-12T07:50:45.664Z,17.93
2023-05-12T07:53:16.611Z,18.07
2023-05-12T07:55:45.677Z,18.15
2023-05-12T07:58:16.275Z,18.22
2023-05-12T08:00:46.915Z,18.21
2023-05-12T08:03:17.710Z,18.26
2023-05-12T08:05:48.821Z,18.35
2023-05-12T08:08:19.459Z,18.39
2023-05-12T08:10:50.085Z,18.38
2023-05-12T08:13:20.864Z,18.40
2023-05-12T08:15:50.378Z,18.41
2023-05-12T08:18:21.891Z,18.51
2023-05-12T08:20:52.700Z,18.68
2023-05-12T08:23:23.347Z,18.81
2023-05-12T08:25:52.372Z,18.86
2023-05-12T08:28:23.086Z,18.90
2023-05-12T08:30:53.747Z,19.04
2023-05-12T08:33:24.560Z,19.21
2023-05-12T08:35:53.697Z,19.30
2023-05-12T08:38:24.320Z,19.25
2023-05-12T08:41:08.144Z,19.23
2023-05-12T08:43:44.307Z,19.29
2023-05-12T08:46:15.663Z,19.40
2023-05-12T08:48:48.128Z,19.46
2023-05-12T08:51:19.905Z,19.50
2023-05-12T08:53:53.509Z,19.44
2023-05-12T08:58:58.605Z,19.55
2023-05-12T09:01:30.206Z,19.63
2023-05-12T09:04:00.975Z,19.68
2023-05-12T09:06:31.970Z,19.78
2023-05-12T09:09:03.124Z,19.78
2023-05-12T09:11:33.794Z,19.73
2023-05-12T09:14:04.383Z,19.76
2023-05-12T09:16:35.561Z,19.75
2023-05-12T09:19:06.839Z,19.77
2023-05-12T09:21:38.137Z,19.92
2023-05-12T09:24:09.362Z,20.02
2023-05-12T09:26:48.923Z,20.16
2023-05-12T09:29:30.649Z,20.36
2023-05-12T09:32:04.105Z,20.44
2023-05-12T09:34:36.829Z,20.45
2023-05-12T09:37:09.337Z,20.38
2023-05-12T09:39:39.946Z,20.33
2023-05-12T09:42:12.287Z,20.36
2023-05-12T09:44:43.045Z,20.39
2023-05-12T09:47:13.922Z,20.51
2023-05-12T09:49:51.800Z,20.67
2023-05-12T09:52:23.498Z,20.74
2023-05-12T09:54:54.152Z,20.76
2023-05-12T09:57:24.746Z,20.78
2023-05-12T09:59:55.898Z,20.81
2023-05-12T10:02:27.904Z,20.83
2023-05-12T10:05:06.825Z,20.77
2023-05-12T10:07:38.099Z,20.79
2023-05-12T10:10:11.496Z,20.90
2023-05-12T10:12:42.494Z,20.89
2023-05-12T10:15:16.901Z,20.83
2023-05-12T10:17:50.299Z,20.77
2023-05-12T10:20:23.029Z,20.81
2023-05-12T10:22:56.045Z,20.89
2023-05-12T10:25:26.996Z,20.91
2023-05-12T10:27:59.041Z,21.02
2023-05-12T10:30:30.026Z,21.11
2023-05-12T10:33:01.160Z,21.23
2023-05-12T10:35:36.044Z,21.22
2023-05-12T10:38:09.831Z,21.21
2023-05-12T10:40:53.001Z,21.26
2023-05-12T10:43:28.515Z,21.35
2023-05-12T10:46:10.156Z,21.33
2023-05-12T10:48:53.341Z,21.38
2023-05-12T10:51:26.442Z,21.51
2023-05-12T10:54:03.488Z,21.60
2023-05-12T10:56:44.963Z,21.45
2023-05-12T10:59:18.394Z,21.36
2023-05-12T11:02:02.187Z,21.38
2023-05-12T11:04:46.038Z,21.44
2023-05-12T11:10:26.533Z,21.63
2023-05-12T11:12:59.035Z,21.57
2023-05-12T11:15:32.436Z,21.48
2023-05-12T11:18:05.282Z,21.53
2023-05-12T11:21:31.822Z,21.68
2023-05-12T11:24:03.397Z,21.85
2023-05-12T11:26:35.450Z,21.94
2023-05-12T11:29:06.304Z,22.08
2023-05-12T11:31:38.221Z,22.09
2023-05-12T11:34:12.963Z,22.04
2023-05-12T11:36:44.713Z,22.08
2023-05-12T11:39:25.987Z,22.25
2023-05-12T11:42:09.459Z,22.36
2023-05-12T11:44:49.929Z,22.40
2023-05-12T11:47:21.403Z,22.36
2023-05-12T11:49:53.546Z,22.33
2023-05-12T11:52:25.215Z,22.41
2023-05-12T11:54:59.407Z,22.39
2023-05-12T11:57:31.839Z,22.19
2023-05-12T12:00:04.703Z,22.14
2023-05-12T12:02:36.022Z,22.15
2023-05-12T12:05:18.549Z,22.21
2023-05-12T12:07:49.485Z,22.13
2023-05-12T12:10:20.477Z,22.15
2023-05-12T12:12:51.483Z,22.19
2023-05-12T12:15:22.413Z,22.23
2023-05-12T12:17:53.237Z,22.28
2023-05-12T12:20:24.170Z,22.27
2023-05-12T12:22:55.390Z,22.29
2023-05-12T12:25:26.304Z,22.36
2023-05-12T12:27:57.019Z,22.40
2023-05-12T12:30:33.465Z,22.28
2023-05-12T12:33:04.240Z,22.31
2023-05-12T12:35:34.878Z,22.35
2023-05-12T12:38:07.721Z,22.44
2023-05-12T12:40:38.435Z,22.53
2023-05-12T12:43:09.373Z,22.60
2023-05-12T12:45:42.700Z,22.73
2023-05-12T12:48:14.698Z,22.85
2023-05-12T12:50:45.487Z,22.78
2023-05-12T12:53:16.216Z,22.71
2023-05-12T12:55:46.891Z,22.69
2023-05-12T12:58:17.668Z,22.68
2023-05-12T13:00:48.407Z,22.55
2023-05-12T13:03:20.480Z,22.66
2023-05-12T13:05:51.295Z,22.73
2023-05-12T13:08:22.035Z,22.89
2023-05-12T13:10:52.691Z,22.99
2023-05-12T13:13:23.380Z,23.06
2023-05-12T13:15:55.133Z,23.23
2023-05-12T13:18:35.977Z,23.32
2023-05-12T13:21:07.778Z,23.50
2023-05-12T13:23:38.688Z,23.64
2023-05-12T13:26:09.400Z,23.50
2023-05-12T13:28:40.720Z,23.42
2023-05-12T13:31:11.438Z,23.32
2023-05-12T13:33:52.437Z,23.18
2023-05-12T13:36:23.072Z,23.20
2023-05-12T13:38:53.897Z,23.32
2023-05-12T13:41:24.521Z,23.45
2023-05-12T13:43:55.169Z,23.51
2023-05-12T13:46:25.849Z,23.40
2023-05-12T13:48:56.597Z,23.29
2023-05-12T13:51:27.677Z,23.35
2023-05-12T13:53:58.324Z,23.40
2023-05-12T13:56:28.989Z,23.36
2023-05-12T13:58:59.712Z,23.35
2023-05-12T14:01:30.839Z,23.13
2023-05-12T14:04:01.557Z,22.93
2023-05-12T14:06:32.209Z,22.78
2023-05-12T14:09:03.622Z,22.70
2023-05-12T14:11:34.665Z,22.68
2023-05-12T14:14:05.418Z,22.71
2023-05-12T14:16:36.061Z,22.83
2023-05-12T14:19:10.647Z,22.95
2023-05-12T14:21:41.331Z,22.99
2023-05-12T14:24:12.092Z,23.03
2023-05-12T14:26:42.662Z,23.03
2023-05-12T14:29:13.346Z,23.03
2023-05-12T14:31:44.063Z,23.08
2023-05-12T14:34:14.833Z,23.12
2023-05-12T14:36:45.475Z,22.94
2023-05-12T14:39:16.108Z,22.81
2023-05-12T14:41:46.772Z,22.77
2023-05-12T14:44:17.399Z,22.76
2023-05-12T14:46:48.362Z,22.76
2023-05-12T14:49:19.129Z,22.80
2023-05-12T14:51:50.023Z,22.87
2023-05-12T14:54:25.746Z,22.73
2023-05-12T14:56:56.966Z,22.47
2023-05-12T14:59:28.875Z,22.48
2023-05-12T15:01:59.609Z,22.49
2023-05-12T15:04:30.462Z,22.56
2023-05-12T15:07:01.441Z,22.62
2023-05-12T15:09:32.102Z,22.57
2023-05-12T15:12:02.766Z,22.36
2023-05-12T15:14:33.801Z,22.27
2023-05-12T15:17:04.668Z,22.36
2023-05-12T15:19:35.430Z,22.48
2023-05-12T15:22:06.281Z,22.48
2023-05-12T15:24:36.988Z,22.41
2023-05-12T15:27:07.874Z,22.39
2023-05-12T15:29:40.771Z,22.29
2023-05-12T15:32:11.425Z,22.28
2023-05-12T15:34:42.114Z,22.25
2023-05-12T15:37:13.109Z,22.19
2023-05-12T15:39:43.982Z,22.16
2023-05-12T15:42:19.231Z,22.23
2023-05-12T15:44:53.036Z,22.23
2023-05-12T15:47:23.685Z,22.20
2023-05-12T15:49:54.289Z,22.14
2023-05-12T15:52:25.017Z,22.06
2023-05-12T15:54:55.721Z,21.99
2023-05-12T15:57:26.342Z,21.89
2023-05-12T15:59:59.964Z,21.84
2023-05-12T16:02:30.912Z,21.85
2023-05-12T16:05:01.719Z,21.79
2023-05-12T16:07:32.820Z,21.74
2023-05-12T16:10:03.718Z,21.70
2023-05-12T16:12:34.355Z,21.66
2023-05-12T16:15:03.579Z,21.60
2023-05-12T16:17:34.294Z,21.61
2023-05-12T16:20:07.899Z,21.61
2023-05-12T16:22:38.523Z,21.58
2023-05-12T16:25:08.538Z,21.55
2023-05-12T16:27:39.278Z,21.53
2023-05-12T16:30:09.665Z,21.43
2023-05-12T16:32:40.368Z,21.38
2023-05-12T16:35:11.391Z,21.31
2023-05-12T16:37:42.014Z,21.28
2023-05-12T16:40:11.469Z,21.26
2023-05-12T16:42:42.138Z,21.24
2023-05-12T16:45:14.115Z,21.20
2023-05-12T16:47:45.153Z,21.07
2023-05-12T16:50:16.042Z,20.97
2023-05-12T16:52:46.698Z,20.91
2023-05-12T16:55:21.577Z,20.86
2023-05-12T16:57:52.605Z,20.84
2023-05-12T17:00:23.428Z,20.82
2023-05-12T17:02:55.192Z,20.81
2023-05-12T17:05:26.120Z,20.79
2023-05-12T17:07:56.770Z,20.78
2023-05-12T17:10:25.826Z,20.75
2023-05-12T17:12:56.546Z,20.71
2023-05-12T17:15:27.494Z,20.71
2023-05-12T17:17:58.205Z,20.71
2023-05-12T17:20:29.395Z,20.69
2023-05-12T17:23:00.202Z,20.66
2023-05-12T17:25:31.082Z,20.67
2023-05-12T17:28:01.819Z,20.61
2023-05-12T17:30:32.565Z,20.55
2023-05-12T17:33:04.476Z,20.48
2023-05-12T17:35:35.176Z,20.44
2023-05-12T17:38:06.011Z,20.40
2023-05-12T17:40:36.887Z,20.36
2023-05-12T17:43:07.652Z,20.31
2023-05-12T17:45:38.316Z,20.25
2023-05-12T17:48:07.387Z,20.21
2023-05-12T17:50:38.052Z,20.14
2023-05-12T17:53:07.136Z,20.10
2023-05-12T17:55:39.566Z,20.00
2023-05-12T17:58:10.201Z,19.91
2023-05-12T18:00:39.334Z,19.78
2023-05-12T18:03:10.029Z,19.62
2023-05-12T18:05:40.796Z,19.45
2023-05-12T18:08:09.951Z,19.32
2023-05-12T18:10:40.562Z,19.19
2023-05-12T18:13:09.729Z,19.09
2023-05-12T18:15:40.343Z,18.97
2023-05-12T18:18:11.227Z,18.88
2023-05-12T18:20:42.012Z,18.78
2023-05-12T18:23:12.858Z,18.68
2023-05-12T18:25:43.312Z,18.60
2023-05-12T18:29:50.327Z,18.47
2023-05-12T18:32:19.417Z,18.35
2023-05-12T18:34:50.141Z,18.27
2023-05-12T18:37:23.099Z,18.18
2023-05-12T18:39:53.837Z,18.11
2023-05-12T18:42:24.534Z,18.04
2023-05-12T18:44:55.305Z,17.99
2023-05-12T18:47:24.420Z,17.93
2023-05-12T18:49:55.096Z,17.85
2023-05-12T18:52:25.810Z,17.79
2023-05-12T18:54:54.893Z,17.73
2023-05-12T18:57:25.535Z,17.66
2023-05-12T18:59:56.254Z,17.61
2023-05-12T19:02:27.076Z,17.54
2023-05-12T19:04:57.892Z,17.49
2023-05-12T19:07:27.068Z,17.45
2023-05-12T19:09:57.708Z,17.39
2023-05-12T19:12:28.796Z,17.34
2023-05-12T19:14:59.472Z,17.28
2023-05-12T19:17:31.548Z,17.23
2023-05-12T19:20:02.281Z,17.16
2023-05-12T19:22:33.067Z,17.12
2023-05-12T19:25:06.018Z,17.08
2023-05-12T19:27:36.751Z,17.03
2023-05-12T19:30:09.873Z,16.98
2023-05-12T19:32:40.623Z,16.93
2023-05-12T19:35:13.796Z,16.87
2023-05-12T19:37:45.296Z,16.83
2023-05-12T19:40:16.201Z,16.78
2023-05-12T19:42:45.315Z,16.73
2023-05-12T19:45:16.078Z,16.66
2023-05-12T19:47:56.798Z,16.62
2023-05-12T19:50:26.274Z,16.57
2023-05-12T19:52:56.982Z,16.53
2023-05-12T19:55:34.551Z,16.47
2023-05-12T19:58:05.179Z,16.42
2023-05-12T20:00:38.246Z,16.38
2023-05-12T20:03:09.971Z,16.31
2023-05-12T20:05:39.201Z,16.28
2023-05-12T20:08:14.396Z,16.23
2023-05-12T20:10:47.945Z,16.18
2023-05-12T20:13:18.568Z,16.14
2023-05-12T20:15:49.302Z,16.10
2023-05-12T20:18:19.972Z,16.06
2023-05-12T20:20:53.338Z,16.02
2023-05-12T20:23:23.970Z,15.97
2023-05-12T20:25:57.120Z,15.93
2023-05-12T20:28:28.026Z,15.88
2023-05-12T20:30:57.127Z,15.84
2023-05-12T20:33:47.763Z,15.79
2023-05-12T20:36:18.731Z,15.75
2023-05-12T20:38:49.609Z,15.72
2023-05-12T20:41:20.220Z,15.67
2023-05-12T20:43:50.890Z,15.61
2023-05-12T20:46:21.583Z,15.57
2023-05-12T20:48:52.246Z,15.52
2023-05-12T20:51:22.907Z,15.47
2023-05-12T20:53:53.920Z,15.43
2023-05-12T20:56:24.599Z,15.39
2023-05-12T20:58:55.324Z,15.35
2023-05-12T21:01:25.918Z,15.31
2023-05-12T21:03:56.682Z,15.28
2023-05-12T21:06:27.841Z,15.23
2023-05-12T21:08:58.503Z,15.18
2023-05-12T21:11:29.174Z,15.14
2023-05-12T21:13:59.865Z,15.11
2023-05-12T21:16:30.609Z,15.07
2023-05-12T21:19:03.836Z,15.04
2023-05-12T21:21:34.503Z,15.02
2023-05-12T21:24:05.805Z,15.00
2023-05-12T21:26:36.482Z,14.98
2023-05-12T21:29:07.072Z,14.95
2023-05-12T21:31:37.745Z,14.90
2023-05-12T21:34:08.373Z,14.85
2023-05-12T21:36:38.978Z,14.84
2023-05-12T21:39:09.558Z,14.79
2023-05-12T21:41:40.189Z,14.75
2023-05-12T21:44:11.439Z,14.72
2023-05-12T21:46:42.612Z,14.71
2023-05-12T21:49:11.802Z,14.67
2023-05-12T21:51:42.446Z,14.61
2023-05-12T21:54:13.069Z,14.58
2023-05-12T21:56:43.679Z,14.54
2023-05-12T21:59:14.293Z,14.49
2023-05-12T22:01:45.028Z,14.44
2023-05-12T22:04:14.310Z,14.40
2023-05-12T22:06:45.014Z,14.34
2023-05-12T22:09:15.774Z,14.31
2023-05-12T22:11:46.393Z,14.28
2023-05-12T22:14:16.986Z,14.25
2023-05-12T22:16:47.747Z,14.20
2023-05-12T22:19:21.931Z,14.17
2023-05-12T22:21:52.835Z,14.15
2023-05-12T22:24:23.428Z,14.13
2023-05-12T22:26:54.214Z,14.09
2023-05-12T22:29:24.819Z,14.08
2023-05-12T22:31:55.532Z,14.04
2023-05-12T22:34:26.249Z,14.00
2023-05-12T22:36:56.925Z,13.97
2023-05-12T22:39:27.492Z,13.90
2023-05-12T22:41:58.196Z,13.84
2023-05-12T22:44:28.881Z,13.79
2023-05-12T22:46:59.539Z,13.72
2023-05-12T22:49:30.190Z,13.69
2023-05-12T22:52:01.067Z,13.64
2023-05-12T22:54:30.095Z,13.59
2023-05-12T22:57:00.853Z,13.53
2023-05-12T22:59:31.442Z,13.49
2023-05-12T23:02:02.404Z,13.46
2023-05-12T23:04:33.139Z,13.41
2023-05-12T23:07:04.111Z,13.40
2023-05-12T23:09:34.869Z,13.38
2023-05-12T23:12:07.959Z,13.36
2023-05-12T23:14:38.596Z,13.32
2023-05-12T23:17:09.380Z,13.26
2023-05-12T23:19:39.924Z,13.20
2023-05-12T23:22:09.403Z,13.14
2023-05-12T23:24:39.990Z,13.10
2023-05-12T23:27:10.843Z,13.09
2023-05-12T23:29:41.414Z,13.07
2023-05-12T23:32:12.194Z,13.05
2023-05-12T23:34:42.959Z,13.04
2023-05-12T23:37:13.668Z,12.98
2023-05-12T23:39:44.367Z,12.93
2023-05-12T23:42:14.993Z,12.90
2023-05-12T23:44:45.884Z,12.87
2023-05-12T23:47:14.949Z,12.83
2023-05-12T23:49:45.588Z,12.78
2023-05-12T23:52:16.220Z,12.74
2023-05-12T23:54:46.844Z,12.71
2023-05-12T23:57:17.574Z,12.66
2023-05-12T23:59:48.249Z,12.65
